Porthill, ID

1:12 PM PDT on April 23, 2017 (GMT -0700)
Castle Meadows Vineyard | | Change Station

Elev 2100 ft 49.08 °N, 116.62 °W | Updated 5 seconds ago

Mostly Cloudy
Mostly Cloudy
49.8 °F
Feels Like 47 °F
N
7.0
Wind Variable Wind from SW
Gusts 15.0 mph

Today
High -- | Low -- °F
--% Chance of Precip.
Yesterday
High -- | Low -- °F
Precip. -- in
Pressure 29.80 in
Visibility 5.0 miles
Clouds Few 4800 ft
Windchill 47 °F
Dew Point 41 °F
Humidity 72%
Rainfall 0.00 in
Snow Depth Not available.
5:38 AM 7:50 PM
Waning Crescent, 10% visible
METAR K65S 231955Z AUTO 20008G17KT 5SM -RA FEW048 08/05 A2980 RMK AO2 P0001
Pressure 29.80 in
Visibility 5.0 miles
Clouds Few 4800 ft
Windchill 47 °F
Dew Point 41 °F
Humidity 72%
Rainfall 0.00 in
Snow Depth Not available.
5:38 AM 7:50 PM
Waning Crescent, 10% visible
METAR K65S 231955Z AUTO 20008G17KT 5SM -RA FEW048 08/05 A2980 RMK AO2 P0001

Get Severe Weather Alerts

Thanks for signing up!

Be on the lookout for a verification email in your inbox.

You'll start receiving the daily forecast at 8 AM.

×

10-Day Weather Forecast

Almanac

Astronomy

Apr. 23, 2017 Rise Set
Actual Time
Civil Twilight
Nautical Twilight
Astronomical Twilight
Moon
Length of Visible Light
Length of Day
Tomorrow will be .
, % of the Moon is Illuminated

Today's Extremes

State Highs State Lows

Community

WunderPhotos

WunderBlog® & News

Nearby

Air Quality

  Air Quality AQ Index Pollutant
Not available.

Snow Depth

Station Depth Elevation

Earthquake Activity

City Distance Mag. Time & Date
Minimum magnitude displayed is 2.5.

Coastal Water Temperatures

Place Temperature

Stations

Nearby Weather Stations

Station Location Temp. Windchill Dew Point Humidity Wind Precip. Elev Updated Type
                   

Watches & Warnings

There are currently no watches in effect.